Time;durP1;ratioP1;P1;durP2;ratioP2;P2;SDS_P1;SDS_P2;PMS_P1;PMS_P2;Temp;Humidity;BMP_temperature;BMP_pressure;BME280_temperature;BME280_humidity;BME280_pressure;Samples;Min_cycle;Max_cycle;Signal;HPM_P1;HPM_P2
2020/12/01 00:02:15;;;;;;;4.45;3.15;;;;;;;;;;5112703;28;20494;-16
2020/12/01 00:04:42;;;;;;;5.03;3.13;;;;;;;;;;5112484;28;20027;-16
2020/12/01 00:07:07;;;;;;;4.47;3.17;;;;;;;;;;5112643;28;20024;-15
2020/12/01 00:09:32;;;;;;;5.65;3.58;;;;;;;;;;5111166;28;20061;-16
2020/12/01 00:11:58;;;;;;;5.45;3.47;;;;;;;;;;5112445;28;20059;-15
2020/12/01 00:14:23;;;;;;;5.88;4.20;;;;;;;;;;5112624;28;20019;-13
2020/12/01 00:16:49;;;;;;;5.68;3.50;;;;;;;;;;5112365;28;20027;-15
2020/12/01 00:19:14;;;;;;;6.25;3.85;;;;;;;;;;5111239;28;20023;-16
2020/12/01 00:21:39;;;;;;;6.53;4.07;;;;;;;;;;5111189;28;20036;-15
2020/12/01 00:24:05;;;;;;;4.57;2.85;;;;;;;;;;5112640;28;20024;-17
2020/12/01 00:26:30;;;;;;;4.45;2.30;;;;;;;;;;5111124;28;20061;-17
2020/12/01 00:28:56;;;;;;;6.95;3.55;;;;;;;;;;5112490;28;20015;-16
2020/12/01 00:31:21;;;;;;;4.53;3.25;;;;;;;;;;5111772;28;20355;-17
2020/12/01 00:33:47;;;;;;;4.93;3.40;;;;;;;;;;5115084;28;20054;-17
2020/12/01 00:36:13;;;;;;;5.13;2.97;;;;;;;;;;5115121;28;20031;-16
2020/12/01 00:38:39;;;;;;;4.10;2.78;;;;;;;;;;5116260;28;20370;-16
2020/12/01 00:41:04;;;;;;;5.57;3.38;;;;;;;;;;5115092;28;20111;-16
2020/12/01 00:43:29;;;;;;;3.45;2.28;;;;;;;;;;5116555;28;20106;-16
2020/12/01 00:45:55;;;;;;;5.43;2.97;;;;;;;;;;5115982;28;20474;-17
2020/12/01 00:48:20;;;;;;;5.05;3.17;;;;;;;;;;5114708;28;20028;-16
2020/12/01 00:50:46;;;;;;;6.88;3.58;;;;;;;;;;5114627;28;20040;-17
2020/12/01 00:53:13;;;;;;;5.65;3.55;;;;;;;;;;5114566;28;20031;-16
2020/12/01 00:55:38;;;;;;;4.93;2.67;;;;;;;;;;5114751;28;20058;-16
2020/12/01 00:58:05;;;;;;;5.60;3.55;;;;;;;;;;5116137;28;20015;-15
2020/12/01 01:00:33;;;;;;;4.70;3.38;;;;;;;;;;5114543;28;20105;-16
2020/12/01 01:03:12;;;;;;;2.85;2.30;;;;;;;;;;5114538;28;20425;-16
2020/12/01 01:05:37;;;;;;;3.58;2.40;;;;;;;;;;5115826;28;20058;-17
2020/12/01 01:08:03;;;;;;;3.58;2.67;;;;;;;;;;5115623;28;20011;-15
2020/12/01 01:10:32;;;;;;;4.05;2.47;;;;;;;;;;5114293;28;20039;-18
2020/12/01 01:12:58;;;;;;;4.28;2.83;;;;;;;;;;5115542;28;20016;-18
2020/12/01 01:15:25;;;;;;;4.95;2.38;;;;;;;;;;5115638;27;20035;-17
2020/12/01 01:17:50;;;;;;;6.53;3.22;;;;;;;;;;5115410;28;20044;-15
2020/12/01 01:20:15;;;;;;;3.88;3.03;;;;;;;;;;5115511;28;20069;-18
2020/12/01 01:22:41;;;;;;;3.78;2.50;;;;;;;;;;5115669;28;20098;-16
2020/12/01 01:25:06;;;;;;;5.88;3.17;;;;;;;;;;5115638;28;20497;-16
2020/12/01 01:27:32;;;;;;;5.10;3.22;;;;;;;;;;5114167;28;20043;-16
2020/12/01 01:29:57;;;;;;;4.88;3.13;;;;;;;;;;5115303;28;20489;-15
2020/12/01 01:32:22;;;;;;;3.25;1.98;;;;;;;;;;5115579;28;20474;-16
2020/12/01 01:34:48;;;;;;;5.13;3.10;;;;;;;;;;5115205;28;20024;-16
2020/12/01 01:37:13;;;;;;;4.57;2.60;;;;;;;;;;5115088;28;20020;-17
2020/12/01 01:39:39;;;;;;;6.38;3.80;;;;;;;;;;5115144;28;20051;-15
2020/12/01 01:42:08;;;;;;;5.88;3.95;;;;;;;;;;5114515;28;20351;-16
2020/12/01 01:44:33;;;;;;;4.57;3.35;;;;;;;;;;5114964;28;20469;-17
2020/12/01 01:47:01;;;;;;;4.25;2.50;;;;;;;;;;5114938;27;20042;-15
2020/12/01 01:49:32;;;;;;;1.65;1.30;;;;;;;;;;5113341;28;20082;-17
2020/12/01 01:51:58;;;;;;;8.45;3.80;;;;;;;;;;5114879;28;20063;-16
2020/12/01 01:54:24;;;;;;;4.57;2.97;;;;;;;;;;5114785;28;20474;-15
2020/12/01 01:56:52;;;;;;;5.78;3.47;;;;;;;;;;5113483;28;20059;-15
2020/12/01 01:59:18;;;;;;;3.97;3.10;;;;;;;;;;5114739;28;20012;-15
2020/12/01 02:01:43;;;;;;;4.80;3.30;;;;;;;;;;5113433;28;20032;-14
2020/12/01 02:04:12;;;;;;;5.47;2.45;;;;;;;;;;5114570;27;20016;-17
2020/12/01 02:06:38;;;;;;;4.75;3.10;;;;;;;;;;5113511;28;20027;-15
2020/12/01 02:09:06;;;;;;;4.35;3.13;;;;;;;;;;5114306;28;20157;-15
2020/12/01 02:11:32;;;;;;;6.90;2.80;;;;;;;;;;5114506;28;20083;-18
2020/12/01 02:14:16;;;;;;;5.03;3.42;;;;;;;;;;5113114;28;20020;-15
2020/12/01 02:16:43;;;;;;;4.95;3.28;;;;;;;;;;5114368;28;20019;-16
2020/12/01 02:19:11;;;;;;;4.75;3.97;;;;;;;;;;5114241;28;20779;-15
2020/12/01 02:21:38;;;;;;;4.40;2.90;;;;;;;;;;5114416;28;20019;-16
2020/12/01 02:24:04;;;;;;;6.15;4.03;;;;;;;;;;5114217;28;20454;-14
2020/12/01 02:26:30;;;;;;;4.85;3.05;;;;;;;;;;5113036;28;20104;-18
2020/12/01 02:28:56;;;;;;;5.78;3.70;;;;;;;;;;5113884;28;20095;-18
2020/12/01 02:31:21;;;;;;;5.22;3.25;;;;;;;;;;5114169;28;20035;-15
2020/12/01 02:33:47;;;;;;;5.25;3.40;;;;;;;;;;5114265;28;20023;-14
2020/12/01 02:36:13;;;;;;;5.10;3.22;;;;;;;;;;5114269;28;20433;-16
2020/12/01 02:38:38;;;;;;;6.07;3.42;;;;;;;;;;5112754;28;20053;-15
2020/12/01 02:41:04;;;;;;;5.97;3.45;;;;;;;;;;5113681;28;20023;-15
2020/12/01 02:43:29;;;;;;;5.40;3.17;;;;;;;;;;5114020;28;20028;-16
2020/12/01 02:45:55;;;;;;;6.20;5.30;;;;;;;;;;5113790;28;20024;-18
2020/12/01 02:48:20;;;;;;;7.57;3.75;;;;;;;;;;5112374;28;20026;-14
2020/12/01 02:50:46;;;;;;;4.55;3.22;;;;;;;;;;5113683;28;20054;-15
2020/12/01 02:53:11;;;;;;;5.03;3.90;;;;;;;;;;5113399;28;20032;-15
2020/12/01 02:55:37;;;;;;;5.57;2.90;;;;;;;;;;5092804;28;20394;-15
2020/12/01 02:58:02;;;;;;;5.47;3.25;;;;;;;;;;5093128;28;20031;-16
2020/12/01 03:00:27;;;;;;;4.28;2.90;;;;;;;;;;5093431;28;20028;-15
2020/12/01 03:02:53;;;;;;;6.32;3.80;;;;;;;;;;5093109;28;20008;-15
2020/12/01 03:05:19;;;;;;;6.28;2.88;;;;;;;;;;5093070;28;20051;-15
2020/12/01 03:07:44;;;;;;;4.53;2.90;;;;;;;;;;5093391;28;20012;-15
2020/12/01 03:10:09;;;;;;;3.30;2.33;;;;;;;;;;5092774;28;20506;-15
2020/12/01 03:12:35;;;;;;;4.15;2.95;;;;;;;;;;5092021;28;20020;-14
2020/12/01 03:15:01;;;;;;;6.90;3.63;;;;;;;;;;5093119;28;20031;-16
2020/12/01 03:17:27;;;;;;;6.75;4.25;;;;;;;;;;5092909;28;20012;-16
2020/12/01 03:19:52;;;;;;;6.35;4.15;;;;;;;;;;5093038;28;20039;-15
2020/12/01 03:22:18;;;;;;;6.32;4.88;;;;;;;;;;5092715;28;20446;-13
2020/12/01 03:24:43;;;;;;;4.55;2.65;;;;;;;;;;5092832;28;20474;-16
2020/12/01 03:27:08;;;;;;;6.45;3.63;;;;;;;;;;5092987;28;20027;-16
2020/12/01 03:29:34;;;;;;;5.13;3.30;;;;;;;;;;5092545;28;20071;-16
2020/12/01 03:31:59;;;;;;;4.32;2.92;;;;;;;;;;5091517;28;20072;-15
2020/12/01 03:34:25;;;;;;;6.30;4.57;;;;;;;;;;5092876;28;20031;-15
2020/12/01 03:36:50;;;;;;;5.18;3.58;;;;;;;;;;5092619;28;20092;-16
2020/12/01 03:39:15;;;;;;;5.03;3.60;;;;;;;;;;5092450;28;20031;-17
2020/12/01 03:41:41;;;;;;;4.72;3.13;;;;;;;;;;5092528;28;20016;-16
2020/12/01 03:44:06;;;;;;;6.57;3.90;;;;;;;;;;5092515;28;20031;-16
2020/12/01 03:46:31;;;;;;;7.85;2.85;;;;;;;;;;5074344;28;20019;-15
2020/12/01 03:48:58;;;;;;;4.10;2.80;;;;;;;;;;5092342;28;20047;-16
2020/12/01 03:51:27;;;;;;;4.75;3.13;;;;;;;;;;5092476;28;20036;-17
2020/12/01 03:53:53;;;;;;;7.25;4.53;;;;;;;;;;5092368;28;20032;-16
2020/12/01 03:56:19;;;;;;;4.00;2.05;;;;;;;;;;5092457;28;20070;-16
2020/12/01 03:58:45;;;;;;;4.00;2.95;;;;;;;;;;5090994;28;20081;-16
2020/12/01 04:01:10;;;;;;;4.72;3.67;;;;;;;;;;5092379;28;20417;-15
2020/12/01 04:03:36;;;;;;;6.40;3.30;;;;;;;;;;5091122;28;20036;-14
2020/12/01 04:06:02;;;;;;;5.88;3.95;;;;;;;;;;5093997;28;20073;-16
2020/12/01 04:08:28;;;;;;;7.50;3.47;;;;;;;;;;5096581;28;20103;-16
2020/12/01 04:10:53;;;;;;;4.90;3.58;;;;;;;;;;5096352;28;20164;-16
2020/12/01 04:13:19;;;;;;;5.45;2.95;;;;;;;;;;5096443;28;20024;-15
2020/12/01 04:15:44;;;;;;;5.28;3.17;;;;;;;;;;5096645;28;20039;-16
2020/12/01 04:18:09;;;;;;;5.45;4.03;;;;;;;;;;5096240;28;20024;-16
2020/12/01 04:20:35;;;;;;;7.82;4.00;;;;;;;;;;5096173;28;20090;-15
2020/12/01 04:23:00;;;;;;;8.25;3.65;;;;;;;;;;5077995;28;20036;-16
2020/12/01 04:25:26;;;;;;;5.05;2.95;;;;;;;;;;5096247;28;20051;-15
2020/12/01 04:27:52;;;;;;;5.45;3.78;;;;;;;;;;5096038;28;20414;-16
2020/12/01 04:30:18;;;;;;;5.20;3.10;;;;;;;;;;5094598;28;20073;-16
2020/12/01 04:32:44;;;;;;;10.02;3.97;;;;;;;;;;5096138;28;20028;-16
2020/12/01 04:35:09;;;;;;;5.18;3.00;;;;;;;;;;5095030;28;20047;-16
2020/12/01 04:37:35;;;;;;;4.47;2.78;;;;;;;;;;5096015;28;20050;-16
2020/12/01 04:40:00;;;;;;;5.50;2.63;;;;;;;;;;5095816;28;20529;-16
2020/12/01 04:42:26;;;;;;;6.28;3.60;;;;;;;;;;5111479;28;20055;-15
2020/12/01 04:44:55;;;;;;;4.28;2.53;;;;;;;;;;5095880;28;20095;-15
2020/12/01 04:47:24;;;;;;;6.82;3.95;;;;;;;;;;5095877;28;20116;-16
2020/12/01 04:49:52;;;;;;;8.95;4.15;;;;;;;;;;5095492;28;20044;-16
2020/12/01 04:52:37;;;;;;;6.00;3.45;;;;;;;;;;5096047;28;20425;-15
2020/12/01 04:55:02;;;;;;;4.78;3.30;;;;;;;;;;5095441;28;20028;-16
2020/12/01 04:57:43;;;;;;;6.57;3.70;;;;;;;;;;5095580;28;20028;-17
2020/12/01 05:00:08;;;;;;;5.55;3.22;;;;;;;;;;5095464;28;20085;-16
2020/12/01 05:02:56;;;;;;;3.88;2.40;;;;;;;;;;5094521;28;20019;-18
2020/12/01 05:05:32;;;;;;;4.63;2.40;;;;;;;;;;5094186;28;20394;-15
2020/12/01 05:08:17;;;;;;;8.55;2.92;;;;;;;;;;5094060;28;20486;-14
2020/12/01 05:10:44;;;;;;;3.15;2.05;;;;;;;;;;5095267;28;20040;-15
2020/12/01 05:13:39;;;;;;;6.68;3.47;;;;;;;;;;5094059;28;20020;-16
2020/12/01 05:16:29;;;;;;;3.72;2.80;;;;;;;;;;5081721;28;20044;-14
2020/12/01 05:18:54;;;;;;;3.67;2.33;;;;;;;;;;5094351;28;20036;-16
2020/12/01 05:21:24;;;;;;;2.30;1.55;;;;;;;;;;5095522;28;20012;-15
2020/12/01 05:23:50;;;;;;;3.90;3.20;;;;;;;;;;5093745;28;20391;-15
2020/12/01 05:26:17;;;;;;;5.20;3.13;;;;;;;;;;5094905;28;20023;-15
2020/12/01 05:28:50;;;;;;;4.40;3.42;;;;;;;;;;5095309;28;20386;-15
2020/12/01 05:31:17;;;;;;;3.85;3.15;;;;;;;;;;5095040;28;20028;-16
2020/12/01 05:33:43;;;;;;;5.13;3.30;;;;;;;;;;5095238;28;20412;-15
2020/12/01 05:36:14;;;;;;;4.40;2.13;;;;;;;;;;5095112;28;20024;-15
2020/12/01 05:38:40;;;;;;;7.40;4.05;;;;;;;;;;5076654;28;20115;-16
2020/12/01 05:41:18;;;;;;;5.45;2.95;;;;;;;;;;5094732;28;20103;-16
2020/12/01 05:43:44;;;;;;;6.25;2.72;;;;;;;;;;5093758;28;20042;-15
2020/12/01 05:46:22;;;;;;;2.97;2.15;;;;;;;;;;5093526;28;20028;-17
2020/12/01 05:48:52;;;;;;;4.45;3.15;;;;;;;;;;5093414;28;20044;-16
2020/12/01 05:51:22;;;;;;;9.55;4.95;;;;;;;;;;5107902;28;20039;-17
2020/12/01 05:53:55;;;;;;;8.50;4.32;;;;;;;;;;5113709;28;20024;-16
2020/12/01 05:56:20;;;;;;;4.78;3.90;;;;;;;;;;5114940;28;20540;-15
2020/12/01 05:58:53;;;;;;;5.30;3.42;;;;;;;;;;5113553;28;20043;-16
2020/12/01 06:01:19;;;;;;;6.57;4.07;;;;;;;;;;5114816;28;20424;-16
2020/12/01 06:03:44;;;;;;;3.60;2.95;;;;;;;;;;5114849;28;20030;-16
2020/12/01 06:06:11;;;;;;;6.45;3.65;;;;;;;;;;5113179;28;20623;-16
2020/12/01 06:08:43;;;;;;;3.97;2.58;;;;;;;;;;5113399;28;20020;-16
2020/12/01 06:11:24;;;;;;;12.32;6.80;;;;;;;;;;5113122;28;20032;-16
2020/12/01 06:13:49;;;;;;;5.57;3.60;;;;;;;;;;5114527;28;20063;-16
2020/12/01 06:16:27;;;;;;;7.80;4.28;;;;;;;;;;5113071;28;20044;-15
2020/12/01 06:19:15;;;;;;;5.03;3.17;;;;;;;;;;5114336;28;20027;-16
2020/12/01 06:21:47;;;;;;;5.85;3.65;;;;;;;;;;5103280;28;20413;-17
2020/12/01 06:24:31;;;;;;;6.88;4.55;;;;;;;;;;5114250;28;20374;-16
2020/12/01 06:26:56;;;;;;;5.63;4.28;;;;;;;;;;5114193;28;20493;-17
2020/12/01 06:29:34;;;;;;;7.75;4.78;;;;;;;;;;5114082;27;20031;-15
2020/12/01 06:32:22;;;;;;;6.60;4.07;;;;;;;;;;5114040;28;20035;-16
2020/12/01 06:35:10;;;;;;;8.32;4.93;;;;;;;;;;5112872;28;20039;-16
2020/12/01 06:37:56;;;;;;;9.43;5.47;;;;;;;;;;5113060;28;20042;-15
2020/12/01 06:40:36;;;;;;;7.45;4.57;;;;;;;;;;5114005;28;20035;-15
2020/12/01 06:43:11;;;;;;;7.57;5.03;;;;;;;;;;5112612;28;20024;-15
2020/12/01 06:45:41;;;;;;;8.73;3.55;;;;;;;;;;5114195;28;20038;-16
2020/12/01 06:48:16;;;;;;;7.78;4.78;;;;;;;;;;5113810;28;20140;-16
2020/12/01 06:50:44;;;;;;;6.15;4.25;;;;;;;;;;5113508;28;20044;-16
2020/12/01 06:53:09;;;;;;;6.65;4.80;;;;;;;;;;5113756;28;20077;-16
2020/12/01 06:55:52;;;;;;;13.52;6.78;;;;;;;;;;5113624;28;20027;-16
2020/12/01 06:58:26;;;;;;;7.50;5.05;;;;;;;;;;5113764;28;20027;-16
2020/12/01 07:01:03;;;;;;;7.28;4.30;;;;;;;;;;5113536;28;20496;-16
2020/12/01 07:03:28;;;;;;;7.00;4.75;;;;;;;;;;5113148;28;20067;-16
2020/12/01 07:05:54;;;;;;;6.40;4.65;;;;;;;;;;5113808;28;20065;-15
2020/12/01 07:08:28;;;;;;;7.50;4.45;;;;;;;;;;5113365;28;20019;-14
2020/12/01 07:11:05;;;;;;;7.85;3.85;;;;;;;;;;5113259;28;20040;-16
2020/12/01 07:13:46;;;;;;;5.13;3.85;;;;;;;;;;5113708;28;20050;-15
2020/12/01 07:16:31;;;;;;;8.02;5.07;;;;;;;;;;5113526;28;20054;-16
2020/12/01 07:19:02;;;;;;;5.70;3.58;;;;;;;;;;5113211;28;20023;-15
2020/12/01 07:21:45;;;;;;;7.80;4.65;;;;;;;;;;5113361;28;20028;-16
2020/12/01 07:24:34;;;;;;;8.13;4.50;;;;;;;;;;5111701;28;20027;-15
2020/12/01 07:27:06;;;;;;;6.20;3.58;;;;;;;;;;5112979;28;20028;-15
2020/12/01 07:29:51;;;;;;;5.05;3.78;;;;;;;;;;5111921;28;20059;-15
2020/12/01 07:32:22;;;;;;;6.65;4.22;;;;;;;;;;5112848;28;20541;-16
2020/12/01 07:34:49;;;;;;;6.15;4.40;;;;;;;;;;5113100;28;20143;-15
2020/12/01 07:37:18;;;;;;;6.38;4.03;;;;;;;;;;5112906;28;20027;-16
2020/12/01 07:39:54;;;;;;;4.32;3.50;;;;;;;;;;5112659;28;20076;-16
2020/12/01 07:42:21;;;;;;;5.90;3.70;;;;;;;;;;5112762;28;20036;-15
2020/12/01 07:44:47;;;;;;;4.90;3.72;;;;;;;;;;5112965;28;20007;-17
2020/12/01 07:47:18;;;;;;;6.35;4.20;;;;;;;;;;5112747;28;20030;-16
2020/12/01 07:49:43;;;;;;;6.95;3.95;;;;;;;;;;5111293;28;20097;-15
2020/12/01 07:52:47;;;;;;;5.55;3.58;;;;;;;;;;5112653;28;20482;-14
2020/12/01 07:55:22;;;;;;;6.15;4.45;;;;;;;;;;5070149;28;20051;-16
2020/12/01 07:58:02;;;;;;;7.93;4.75;;;;;;;;;;5111399;28;20446;-13
2020/12/01 08:00:29;;;;;;;6.35;4.00;;;;;;;;;;5112751;28;20138;-15
2020/12/01 08:03:10;;;;;;;4.85;3.28;;;;;;;;;;5112653;28;20107;-14
2020/12/01 08:05:35;;;;;;;6.07;3.15;;;;;;;;;;5112665;28;20065;-13
2020/12/01 08:08:01;;;;;;;6.00;3.60;;;;;;;;;;5112363;28;20039;-12
2020/12/01 08:10:28;;;;;;;6.03;3.65;;;;;;;;;;5112614;28;20113;-15
2020/12/01 08:12:59;;;;;;;5.72;3.10;;;;;;;;;;5112664;28;20608;-15
2020/12/01 08:15:25;;;;;;;4.80;3.00;;;;;;;;;;5111627;28;20397;-15
2020/12/01 08:17:51;;;;;;;6.68;3.88;;;;;;;;;;5111348;28;20046;-16
2020/12/01 08:20:18;;;;;;;6.38;4.60;;;;;;;;;;5112456;28;20067;-14
2020/12/01 08:22:48;;;;;;;5.22;3.88;;;;;;;;;;5112757;28;20022;-16
2020/12/01 08:25:16;;;;;;;8.60;4.47;;;;;;;;;;5111165;28;20030;-17
2020/12/01 08:27:53;;;;;;;6.45;3.75;;;;;;;;;;5111307;28;20026;-16
2020/12/01 08:30:39;;;;;;;9.30;4.43;;;;;;;;;;5110996;28;20040;-15
2020/12/01 08:33:13;;;;;;;8.18;4.90;;;;;;;;;;5060137;28;20120;-14
2020/12/01 08:35:43;;;;;;;7.40;4.03;;;;;;;;;;5111446;28;20416;-15
2020/12/01 08:38:17;;;;;;;7.30;4.45;;;;;;;;;;5112289;28;20488;-16
2020/12/01 08:40:51;;;;;;;8.43;4.00;;;;;;;;;;5112446;28;20373;-15
2020/12/01 08:43:30;;;;;;;7.25;3.63;;;;;;;;;;5112442;28;20059;-15
2020/12/01 08:46:04;;;;;;;7.88;3.85;;;;;;;;;;5111313;28;20043;-16
2020/12/01 08:48:42;;;;;;;6.88;4.32;;;;;;;;;;5110797;28;20052;-17
2020/12/01 08:51:22;;;;;;;6.18;3.65;;;;;;;;;;5112191;28;20474;-15
2020/12/01 08:53:54;;;;;;;6.55;4.07;;;;;;;;;;5113938;28;20076;-16
2020/12/01 08:56:34;;;;;;;6.70;4.90;;;;;;;;;;5115820;27;20045;-16
2020/12/01 08:59:03;;;;;;;4.95;3.65;;;;;;;;;;5115921;28;20046;-15
2020/12/01 09:01:37;;;;;;;4.38;2.60;;;;;;;;;;5116542;28;20080;-16
2020/12/01 09:04:04;;;;;;;5.38;2.88;;;;;;;;;;5115997;28;20050;-16
2020/12/01 09:06:35;;;;;;;6.05;4.18;;;;;;;;;;4748856;28;10000497;-16
2020/12/01 09:09:06;;;;;;;5.53;3.63;;;;;;;;;;5091846;28;20073;-15
2020/12/01 09:11:51;;;;;;;6.20;4.80;;;;;;;;;;5090466;28;20693;-17
2020/12/01 09:22:13;;;;;;;7.07;4.22;;;;;;;;;;5111428;28;20038;-15
2020/12/01 09:24:39;;;;;;;6.35;4.25;;;;;;;;;;5112485;28;20157;-19
2020/12/01 09:27:07;;;;;;;9.50;6.00;;;;;;;;;;5112179;28;20035;-16
2020/12/01 09:29:33;;;;;;;9.73;3.78;;;;;;;;;;5111420;28;20050;-16
2020/12/01 09:31:58;;;;;;;7.82;3.90;;;;;;;;;;5112174;28;20016;-17
2020/12/01 09:34:24;;;;;;;5.75;3.55;;;;;;;;;;5111966;28;20490;-16
2020/12/01 09:36:55;;;;;;;6.93;4.68;;;;;;;;;;5112247;28;20026;-17
2020/12/01 09:39:21;;;;;;;5.35;3.85;;;;;;;;;;5111874;28;20035;-16
2020/12/01 09:41:54;;;;;;;5.95;3.40;;;;;;;;;;5111342;28;20107;-15
2020/12/01 09:44:44;;;;;;;10.38;5.80;;;;;;;;;;5111582;28;20449;-16
2020/12/01 09:47:09;;;;;;;10.43;4.82;;;;;;;;;;5111298;28;20088;-16
2020/12/01 09:49:35;;;;;;;5.38;3.42;;;;;;;;;;5111333;28;20082;-14
2020/12/01 09:52:12;;;;;;;6.20;4.20;;;;;;;;;;5111477;28;20126;-16
2020/12/01 09:54:44;;;;;;;7.07;3.72;;;;;;;;;;5109734;28;20076;-15
2020/12/01 10:03:04;;;;;;;9.35;6.10;;;;;;;;;;5092255;28;20041;-16
2020/12/01 10:16:32;;;;;;;9.38;5.22;;;;;;;;;;5110707;28;20023;-16
2020/12/01 10:32:28;;;;;;;10.68;5.78;;;;;;;;;;5087379;28;20481;-14
2020/12/01 10:34:58;;;;;;;8.20;3.15;;;;;;;;;;5110127;28;20019;-20
2020/12/01 10:37:24;;;;;;;8.10;5.28;;;;;;;;;;5109183;28;20133;-16
2020/12/01 10:39:50;;;;;;;10.48;4.93;;;;;;;;;;5103405;28;20046;-15
2020/12/01 10:42:16;;;;;;;8.23;5.32;;;;;;;;;;5090581;28;20047;-16
2020/12/01 10:44:42;;;;;;;9.90;5.90;;;;;;;;;;5089917;28;20604;-16
2020/12/01 10:47:08;;;;;;;9.80;4.95;;;;;;;;;;5099074;28;20015;-16
2020/12/01 10:49:33;;;;;;;10.40;5.97;;;;;;;;;;5108539;28;20051;-16
2020/12/01 10:51:59;;;;;;;8.60;4.40;;;;;;;;;;5110412;28;20525;-14
2020/12/01 10:54:24;;;;;;;5.38;4.05;;;;;;;;;;5103458;28;20509;-14
2020/12/01 10:56:51;;;;;;;8.30;4.53;;;;;;;;;;5089494;28;20039;-15
2020/12/01 10:59:17;;;;;;;9.65;5.68;;;;;;;;;;5089908;28;20032;-15
2020/12/01 11:01:42;;;;;;;4.18;2.13;;;;;;;;;;5104978;28;20473;-15
2020/12/01 11:04:08;;;;;;;8.45;5.93;;;;;;;;;;5109807;28;20085;-15
2020/12/01 11:06:36;;;;;;;8.27;5.18;;;;;;;;;;5100661;28;20023;-15
2020/12/01 11:09:02;;;;;;;6.38;5.72;;;;;;;;;;5089281;28;20042;-14
2020/12/01 11:11:27;;;;;;;7.28;5.57;;;;;;;;;;5089294;28;20035;-15
2020/12/01 11:13:53;;;;;;;10.43;6.05;;;;;;;;;;5089430;28;20031;-16
2020/12/01 11:16:18;;;;;;;9.93;5.20;;;;;;;;;;5088547;28;20024;-14
2020/12/01 11:18:44;;;;;;;9.90;7.07;;;;;;;;;;5088748;28;20146;-15
2020/12/01 11:21:09;;;;;;;8.32;3.90;;;;;;;;;;5087668;28;20114;-16
2020/12/01 11:23:35;;;;;;;7.15;4.63;;;;;;;;;;5087807;28;20020;-15
2020/12/01 11:26:00;;;;;;;7.68;5.65;;;;;;;;;;5105241;28;20498;-15
2020/12/01 11:28:26;;;;;;;7.00;4.38;;;;;;;;;;5109198;28;20034;-16
2020/12/01 11:30:52;;;;;;;10.32;6.75;;;;;;;;;;5108822;28;20053;-15
2020/12/01 11:33:17;;;;;;;7.93;5.00;;;;;;;;;;5109776;28;20032;-15
2020/12/01 11:35:43;;;;;;;8.18;5.63;;;;;;;;;;5108662;28;20404;-15
2020/12/01 11:38:08;;;;;;;9.88;5.78;;;;;;;;;;5109650;28;20119;-15
2020/12/01 11:40:34;;;;;;;9.88;6.07;;;;;;;;;;5109811;28;20020;-16
2020/12/01 11:42:59;;;;;;;12.35;6.50;;;;;;;;;;5107715;28;20035;-15
2020/12/01 11:45:26;;;;;;;8.82;5.22;;;;;;;;;;5107943;28;20019;-16
2020/12/01 11:47:51;;;;;;;12.02;7.53;;;;;;;;;;5109526;28;20027;-16
2020/12/01 11:50:17;;;;;;;7.80;4.65;;;;;;;;;;5109028;28;20039;-14
2020/12/01 11:52:42;;;;;;;10.00;6.63;;;;;;;;;;5108093;28;20027;-16
2020/12/01 11:55:08;;;;;;;9.95;6.70;;;;;;;;;;5109348;28;20027;-15
2020/12/01 11:57:33;;;;;;;11.43;6.60;;;;;;;;;;5109384;28;20103;-14
2020/12/01 11:59:59;;;;;;;15.18;7.35;;;;;;;;;;5109603;28;20020;-15
2020/12/01 12:02:24;;;;;;;10.00;6.50;;;;;;;;;;5109004;28;20027;-16
2020/12/01 12:04:50;;;;;;;9.48;5.68;;;;;;;;;;5109067;28;20019;-16
2020/12/01 12:07:15;;;;;;;9.27;6.43;;;;;;;;;;5109281;28;20076;-16
2020/12/01 12:09:41;;;;;;;10.02;5.60;;;;;;;;;;5108940;28;20032;-15
2020/12/01 12:12:06;;;;;;;11.85;6.85;;;;;;;;;;5107785;28;20481;-15
2020/12/01 12:14:32;;;;;;;8.23;5.13;;;;;;;;;;5109489;28;20015;-15
2020/12/01 12:16:57;;;;;;;9.07;5.50;;;;;;;;;;5109241;28;20393;-15
2020/12/01 12:19:23;;;;;;;5.43;3.45;;;;;;;;;;5109278;28;20374;-14
2020/12/01 12:21:48;;;;;;;5.78;4.78;;;;;;;;;;5109465;28;20036;-15
2020/12/01 12:24:14;;;;;;;10.80;6.40;;;;;;;;;;5107777;28;20036;-16
2020/12/01 12:26:39;;;;;;;51.25;19.15;;;;;;;;;;5110786;28;20038;-15
2020/12/01 12:29:05;;;;;;;12.48;6.53;;;;;;;;;;5112970;27;20047;-15
2020/12/01 12:31:31;;;;;;;10.45;7.20;;;;;;;;;;5112665;28;20035;-14
2020/12/01 12:33:56;;;;;;;10.77;6.10;;;;;;;;;;5113117;28;20061;-16
2020/12/01 12:36:22;;;;;;;13.32;7.50;;;;;;;;;;5112992;28;20105;-17
2020/12/01 12:38:48;;;;;;;8.38;5.72;;;;;;;;;;5111862;28;20090;-15
2020/12/01 12:41:13;;;;;;;11.32;7.20;;;;;;;;;;5112913;28;20172;-14
2020/12/01 12:43:39;;;;;;;8.43;6.43;;;;;;;;;;5111498;28;20019;-16
2020/12/01 12:46:04;;;;;;;10.10;6.07;;;;;;;;;;5112555;28;20032;-16
2020/12/01 12:48:30;;;;;;;10.10;6.13;;;;;;;;;;5112571;28;20069;-16
2020/12/01 12:50:56;;;;;;;9.60;6.72;;;;;;;;;;5112989;28;20048;-15
2020/12/01 12:53:22;;;;;;;11.40;6.35;;;;;;;;;;5111058;28;20441;-16
2020/12/01 12:55:47;;;;;;;11.32;7.90;;;;;;;;;;5110891;28;20034;-15
2020/12/01 12:58:13;;;;;;;11.80;8.07;;;;;;;;;;5112605;28;20546;-15
2020/12/01 13:00:38;;;;;;;10.88;6.03;;;;;;;;;;5111330;28;20478;-17
2020/12/01 13:03:04;;;;;;;10.65;5.63;;;;;;;;;;5111319;28;20064;-15
2020/12/01 13:05:29;;;;;;;11.48;7.13;;;;;;;;;;5112469;28;20106;-16
2020/12/01 13:07:55;;;;;;;9.40;5.25;;;;;;;;;;5112027;28;20466;-16
2020/12/01 13:10:21;;;;;;;13.60;8.18;;;;;;;;;;5112281;28;20501;-16
2020/12/01 13:12:47;;;;;;;11.95;7.05;;;;;;;;;;5110598;28;20015;-16
2020/12/01 13:15:12;;;;;;;9.40;6.32;;;;;;;;;;5111726;28;20043;-16
2020/12/01 13:17:40;;;;;;;13.57;8.23;;;;;;;;;;5111406;28;20039;-16
2020/12/01 13:20:07;;;;;;;17.55;10.68;;;;;;;;;;5111697;28;20494;-19
2020/12/01 13:22:32;;;;;;;10.80;6.35;;;;;;;;;;5110309;28;20049;-15
2020/12/01 13:24:58;;;;;;;11.77;7.78;;;;;;;;;;5112225;28;20063;-26
2020/12/01 13:27:23;;;;;;;10.07;7.40;;;;;;;;;;5111853;28;20019;-17
2020/12/01 13:29:49;;;;;;;12.27;7.93;;;;;;;;;;5111639;28;20031;-15
2020/12/01 13:32:14;;;;;;;14.07;7.93;;;;;;;;;;5112101;28;20549;-16
2020/12/01 13:34:40;;;;;;;12.45;7.68;;;;;;;;;;5111769;28;20491;-15
2020/12/01 13:37:06;;;;;;;12.75;7.28;;;;;;;;;;5112020;28;20023;-16
2020/12/01 13:39:31;;;;;;;11.18;6.13;;;;;;;;;;5110943;28;20032;-14
2020/12/01 13:41:57;;;;;;;11.40;6.57;;;;;;;;;;5110138;28;20018;-14
2020/12/01 13:44:23;;;;;;;11.80;8.05;;;;;;;;;;5110180;28;20126;-16
2020/12/01 13:46:52;;;;;;;10.32;6.05;;;;;;;;;;5111840;28;20069;-15
2020/12/01 13:49:17;;;;;;;11.20;7.88;;;;;;;;;;5111608;28;20051;-15
2020/12/01 13:51:43;;;;;;;10.73;6.93;;;;;;;;;;5112010;28;20499;-16
2020/12/01 13:54:08;;;;;;;11.80;7.38;;;;;;;;;;5111427;28;20110;-14
2020/12/01 13:56:34;;;;;;;12.15;6.90;;;;;;;;;;5110246;28;20015;-14
2020/12/01 13:59:01;;;;;;;9.68;6.35;;;;;;;;;;5111476;28;20393;-15
2020/12/01 14:01:27;;;;;;;14.68;5.70;;;;;;;;;;5111597;28;20019;-16
2020/12/01 14:03:52;;;;;;;9.65;5.18;;;;;;;;;;5109944;28;20027;-15
2020/12/01 14:06:18;;;;;;;14.65;9.57;;;;;;;;;;5110798;28;20011;-15
2020/12/01 14:08:44;;;;;;;14.60;8.38;;;;;;;;;;5111070;28;20111;-14
2020/12/01 14:11:13;;;;;;;14.27;8.57;;;;;;;;;;5111202;28;20027;-15
2020/12/01 14:13:39;;;;;;;14.18;8.35;;;;;;;;;;5111053;28;20032;-14
2020/12/01 14:16:04;;;;;;;13.10;7.00;;;;;;;;;;5110855;28;20024;-15
2020/12/01 14:18:32;;;;;;;12.93;7.97;;;;;;;;;;5110418;28;20023;-15
2020/12/01 14:20:57;;;;;;;11.65;8.40;;;;;;;;;;5110657;28;20022;-14
2020/12/01 14:23:23;;;;;;;7.82;4.55;;;;;;;;;;5110892;28;20059;-15
2020/12/01 14:25:51;;;;;;;9.05;5.95;;;;;;;;;;5109234;28;20058;-18
2020/12/01 14:28:17;;;;;;;10.73;6.75;;;;;;;;;;5110585;28;20042;-16
2020/12/01 14:30:42;;;;;;;12.98;7.95;;;;;;;;;;5109958;28;20469;-17
2020/12/01 14:33:08;;;;;;;14.70;8.45;;;;;;;;;;5110597;28;20011;-16
2020/12/01 14:35:33;;;;;;;10.35;8.13;;;;;;;;;;5110798;28;20027;-15
2020/12/01 14:37:59;;;;;;;12.93;8.77;;;;;;;;;;5110534;28;20024;-15
2020/12/01 14:40:26;;;;;;;12.50;8.88;;;;;;;;;;5110541;28;20019;-16
2020/12/01 14:42:51;;;;;;;11.15;8.30;;;;;;;;;;5095935;28;20128;-15
2020/12/01 14:45:17;;;;;;;13.70;8.57;;;;;;;;;;5107740;28;20107;-16
2020/12/01 14:47:49;;;;;;;10.43;7.00;;;;;;;;;;5110176;28;20092;-15
2020/12/01 14:50:14;;;;;;;12.00;6.45;;;;;;;;;;5108777;28;20546;-16
2020/12/01 14:52:58;;;;;;;14.63;9.38;;;;;;;;;;5110291;28;20039;-15
2020/12/01 14:55:30;;;;;;;15.90;9.48;;;;;;;;;;5109956;28;20081;-14
2020/12/01 14:58:01;;;;;;;9.43;5.82;;;;;;;;;;5109968;28;20049;-14
2020/12/01 15:00:39;;;;;;;10.80;8.00;;;;;;;;;;5103557;28;20036;-13
2020/12/01 15:03:05;;;;;;;11.95;6.65;;;;;;;;;;5109163;28;20442;-14
2020/12/01 15:05:32;;;;;;;9.68;5.90;;;;;;;;;;5108039;28;20106;-15
2020/12/01 15:07:58;;;;;;;19.50;8.18;;;;;;;;;;5091253;28;20020;-14
2020/12/01 15:10:47;;;;;;;13.93;9.25;;;;;;;;;;5087948;28;20081;-14
2020/12/01 15:13:13;;;;;;;10.95;7.32;;;;;;;;;;5060247;28;20090;-15
2020/12/01 15:15:40;;;;;;;12.63;8.30;;;;;;;;;;5089368;28;20447;-16
2020/12/01 15:18:07;;;;;;;13.93;8.32;;;;;;;;;;5089128;28;20097;-15
2020/12/01 15:20:33;;;;;;;11.40;7.53;;;;;;;;;;5089488;28;20095;-13
2020/12/01 15:22:59;;;;;;;16.85;9.05;;;;;;;;;;5106107;28;20123;-14
2020/12/01 15:25:25;;;;;;;11.95;8.80;;;;;;;;;;5091340;28;20024;-15
2020/12/01 15:28:06;;;;;;;11.52;7.75;;;;;;;;;;5107903;28;20035;-15